Tha Wang Pha, Thailand

11:25 AM ICT on July 05, 2015 (GMT +0700)
Nan | | Change Station
CLOSE
Current Station
Airport
Location: Nan,
Elevation: 659 ft
Nearby Weather Stations

Elev 659 ft 18.77 °N, 100.76 °E | Updated 25 minutes ago

Scattered Clouds
Scattered Clouds
95 °F
Feels Like 98 °F
N
6
Wind Variable Wind from South

Today
High -- | Low -- °F
--% Chance of Precip.
Yesterday
High -- | Low -- °F
Precip. -- in
5:43 AM 6:58 PM
Waning Gibbous, 88% visible
Pressure 29.65 in
Visibility 6.2 miles
Clouds Few 2500 ft
Scattered Clouds 10000 ft
Heat Index 98 °F
Dew Point 66 °F
Humidity 39%
Rainfall 0.00 in
Snow Depth Not available.
UV 13 out of 12
Pollen Not available.
Air Quality Not available.
Flu Activity Not available.
METAR VTCN 050400Z 19005KT 080V250 9999 FEW025 SCT100 35/19 Q1004 A2965

More Conditions Fewer Conditions

Pressure 29.65 in
Visibility 6.2 miles
Clouds Few 2500 ft
Scattered Clouds 10000 ft
Heat Index 98 °F
Dew Point 66 °F
Humidity 39%
Rainfall 0.00 in
Snow Depth Not available.
UV 13 out of 12
Pollen Not available.
Air Quality Not available.
Flu Activity Not available.
METAR VTCN 050400Z 19005KT 080V250 9999 FEW025 SCT100 35/19 Q1004 A2965

More Conditions Fewer Conditions

10-Day Weather Forecast

×

Almanac

Astronomy

Jul. 05, 2015 Rise Set
Actual Time
Civil Twilight
Nautical Twilight
Astronomical Twilight
Moon
Length of Visible Light
Length of Day
Tomorrow will be .
, % of the Moon is Illuminated

Today's Extremes

Country Highs Country Lows

Community

WunderPhotos

Upload Photos

1,835,197 photos uploaded!

WunderBlogs® & News

Nearby

Air Quality

  Air Quality AQ Index Pollutant
Not available.

Snow Depth

Station Depth Elevation

Earthquake Activity

City Distance Mag. Time & Date
Minimum magnitude displayed is 2.5.

Coastal Water Temperatures

Place Temperature

Stations

Nearby Weather Stations

Station Location Temp. Windchill Dew Point Humidity Wind Precip. Elev Updated Type